LLA weather

Luleå Airport
Luleå, Norrbottena län, Sweden

Public forecast

Using degrees Celsius for public forecast. Weather courtesy of forecast.io.

METAR (pilot weather report)

Retrieved 2019/02/16 20:50 UTC (21 minutes ago):

ESPA 162050Z AUTO 30023G33KT 9999 OVC086/// 03/M06 Q0989

TAF (pilot weather forecast)

Forecast is more than 12 hours old.

Retrieved 2019/02/04 06:27 UTC (13 days ago):

TAF TAF ESPA 040820Z 0406/0418 01010KT 2000 SN VV020 TEMPO 0409/0414 1000 +SN DRSN VV009 BECMG 0414/0416 32010KT 5000 -SN VV030 RMK MIL